Tuesday, April 24, 2018, 4:24 AM EDT
Back to Local

KSNC, Chester, Chester Airport

Location: Chester, CT, United States Lat: 41.384
Local Time: 4:24 AM EDT ( 8:24 GMT) Lon: -72.506
Time Zone: US/Eastern Elev: 416 ft

Show me the last for .
Show Coded

Time T Td Feel RH Dir Speed Gust Alt SLP Vis Weather Sky Remarks
2018-04-24 03:55 41 39 38 93 200° 5 - 30.41 - 10 CLR None
2018-04-24 03:35 41 37 38 86 200° 5 - 30.42 - 10 CLR None
2018-04-24 03:15 37 34 35 86 200° 3 - 30.42 - 10 CLR None
2018-04-24 02:55 37 34 - 86 - Calm - 30.41 - 10 CLR None
2018-04-24 02:35 37 34 - 86 - Calm - 30.41 - 10 CLR None
2018-04-24 02:15 39 34 - 80 - Calm - 30.42 - 10 CLR None
2018-04-24 01:55 39 34 - 80 - Calm - 30.42 - 10 CLR None
2018-04-24 01:35 41 36 - 80 - Calm - 30.43 - 10 CLR None
2018-04-24 01:15 43 36 - 75 - Calm - 30.44 - 10 CLR None
2018-04-24 00:55 43 36 41 75 210° 3 - 30.44 - 10 CLR None
2018-04-24 00:35 43 36 41 75 190° 3 - 30.44 - 10 CLR None
2018-04-24 00:15 43 36 41 75 190° 3 - 30.44 - 10 None
2018-04-23 23:55 43 36 40 75 200° 5 - 30.45 - 10 CLR None
2018-04-23 23:35 43 34 39 70 200° 6 - 30.45 - 10 CLR None
2018-04-23 23:15 43 34 - 70 - Calm - 30.44 - 10 CLR None
2018-04-23 22:55 45 32 42 61 170° 5 - 30.44 - 10 CLR None
2018-04-23 22:35 45 32 41 61 200° 6 - 30.45 - 10 CLR None
2018-04-23 22:15 45 34 - 65 - Calm - 30.45 - 10 CLR None
2018-04-23 21:55 45 34 - 65 - - - 30.45 - 10 CLR None
2018-04-23 21:35 46 32 44 56 190° 5 - 30.45 - 10 CLR None
2018-04-23 21:15 46 30 45 52 160° 3 - 30.45 - 10 CLR None
2018-04-23 20:55 48 28 46 45 180° 6 - 30.45 - 10 CLR None
2018-04-23 20:35 48 27 46 42 170° 6 - 30.45 - 10 CLR None
2018-04-23 20:15 50 23 48 34 160° 5 - 30.44 - 10 CLR None
2018-04-23 19:55 50 21 48 31 150° 5 - 30.44 - 10 CLR None
2018-04-23 19:35 52 18 - 25 160° 8 - 30.43 - 10 CLR None
2018-04-23 19:15 54 16 - 22 160° 9 - 30.43 - 10 CLR None
2018-04-23 18:55 55 14 - 19 170° 12 - 30.44 - 10 CLR None
2018-04-23 18:35 57 16 - 19 170° 12 - 30.44 - 10 CLR None
2018-04-23 18:15 59 14 - 16 170° 13 - 30.44 - 10 CLR None
2018-04-23 17:55 61 16 - 17 170° 12 - 30.44 - 10 CLR None
2018-04-23 17:35 61 18 - 18 200° 12 - 30.44 - 10 CLR None
2018-04-23 17:15 61 19 - 19 170° 9 16 30.44 - 10 CLR None
2018-04-23 16:55 61 19 - 19 180° 10 - 30.44 - 10 CLR None
2018-04-23 16:35 63 21 - 20 160° 12 - 30.44 - 10 CLR None
2018-04-23 16:15 63 21 - 20 190° 8 - 30.44 - 10 CLR None
2018-04-23 15:55 63 21 - 20 190° 9 - 30.44 - 10 CLR None
2018-04-23 15:35 63 18 - 17 160° 7 14 30.44 - 10 CLR None
2018-04-23 15:15 63 21 - 20 190° 10 - 30.44 - 10 CLR None
2018-04-23 14:55 63 19 - 18 180° 8 16 30.44 - 10 CLR None
2018-04-23 14:35 63 18 - 17 160° 12 - 30.45 - 10 CLR None
2018-04-23 14:15 63 16 - 16 170° 10 - 30.45 - 10 CLR None
2018-04-23 13:55 63 18 - 17 Variable 5 15 30.46 - 10 CLR None
2018-04-23 13:35 63 19 - 18 180° 8 - 30.46 - 10 CLR None
2018-04-23 13:15 61 19 - 19 180° 12 - 30.46 - 10 CLR None
2018-04-23 12:55 61 19 - 19 160° 9 16 30.47 - 10 CLR None
2018-04-23 12:35 63 21 - 20 180° 14 - 30.47 - 10 CLR None
2018-04-23 12:15 64 18 - 16 200° 8 - 30.47 - 10 CLR None
2018-04-23 11:55 63 16 - 16 Variable 5 - 30.47 - 10 CLR None
2018-04-23 11:35 63 14 - 14 260° 3 - 30.47 - 10 CLR None
2018-04-23 11:15 63 16 - 16 - Calm - 30.48 - 10 CLR None
2018-04-23 10:55 61 16 - 17 40° 6 - 30.48 - 10 CLR None
2018-04-23 10:35 59 18 - 19 70° 6 - 30.48 - 10 CLR None
2018-04-23 10:15 59 18 - 19 80° 7 - 30.48 - 10 CLR None
2018-04-23 09:55 57 18 - 20 - Calm - - - 10 CLR None
2018-04-23 09:35 57 18 - 20 40° 7 - 30.49 - 10 CLR None
2018-04-23 09:15 55 16 - 20 80° 7 - 30.49 - 10 CLR None
2018-04-23 08:55 54 16 - 22 60° 7 - 30.49 - 10 CLR None
2018-04-23 08:35 54 18 - 23 80° 6 - 30.49 - 10 CLR None
2018-04-23 08:15 52 18 - 25 40° 5 - 30.49 - 10 CLR None
2018-04-23 07:55 50 18 48 27 360° 5 - 30.49 - 10 CLR None
2018-04-23 07:35 50 16 - 25 - Calm - 30.48 - 10 CLR None
2018-04-23 07:15 48 16 47 26 350° 3 - 30.48 - 10 CLR None
2018-04-23 06:55 45 16 42 30 360° 5 - 30.47 - 10 CLR None
2018-04-23 06:35 43 16 41 33 350° 3 - 30.46 - 10 CLR None
2018-04-23 06:15 43 16 40 33 10° 5 - 30.45 - 10 CLR None
2018-04-23 05:55 43 16 40 33 10° 5 - 30.45 - 10 CLR None
2018-04-23 05:35 43 18 41 35 20° 3 - 30.44 - 10 CLR None
2018-04-23 05:15 41 19 38 41 20° 5 - 30.43 - 10 CLR None
2018-04-23 04:55 41 21 37 44 10° 6 - 30.43 - 10 None
2018-04-23 04:35 - - - 0 - - - - - 0 None

Support USWX by starting your Amazon purchase here.